sensor_id;sensor_type;location;lat;lon;timestamp;P1;durP1;ratioP1;P2;durP2;ratioP2
59308;SDS011;48433;53.016;-2.260;2023-04-15T00:02:17;37.90;;;27.63;;
59308;SDS011;48433;53.016;-2.260;2023-04-15T00:04:46;42.33;;;29.13;;
59308;SDS011;48433;53.016;-2.260;2023-04-15T00:07:14;43.13;;;30.58;;
59308;SDS011;48433;53.016;-2.260;2023-04-15T00:09:42;41.17;;;30.23;;
59308;SDS011;48433;53.016;-2.260;2023-04-15T00:12:10;47.78;;;31.60;;
59308;SDS011;48433;53.016;-2.260;2023-04-15T00:14:38;48.50;;;32.67;;
59308;SDS011;48433;53.016;-2.260;2023-04-15T00:17:06;46.28;;;33.05;;
59308;SDS011;48433;53.016;-2.260;2023-04-15T00:19:34;49.20;;;32.67;;
59308;SDS011;48433;53.016;-2.260;2023-04-15T00:22:01;48.75;;;33.83;;
59308;SDS011;48433;53.016;-2.260;2023-04-15T00:24:29;51.50;;;33.72;;
59308;SDS011;48433;53.016;-2.260;2023-04-15T00:26:57;49.80;;;33.58;;
59308;SDS011;48433;53.016;-2.260;2023-04-15T00:29:25;47.35;;;34.10;;
59308;SDS011;48433;53.016;-2.260;2023-04-15T00:31:53;50.50;;;33.05;;
59308;SDS011;48433;53.016;-2.260;2023-04-15T00:34:21;49.42;;;33.08;;
59308;SDS011;48433;53.016;-2.260;2023-04-15T00:36:49;50.97;;;32.05;;
59308;SDS011;48433;53.016;-2.260;2023-04-15T00:39:17;52.35;;;33.15;;
59308;SDS011;48433;53.016;-2.260;2023-04-15T00:41:46;47.25;;;32.55;;
59308;SDS011;48433;53.016;-2.260;2023-04-15T00:44:15;53.75;;;33.97;;
59308;SDS011;48433;53.016;-2.260;2023-04-15T00:46:44;53.80;;;33.47;;
59308;SDS011;48433;53.016;-2.260;2023-04-15T00:49:14;52.67;;;33.55;;
59308;SDS011;48433;53.016;-2.260;2023-04-15T00:51:42;52.85;;;32.63;;
59308;SDS011;48433;53.016;-2.260;2023-04-15T00:54:09;48.97;;;31.83;;
59308;SDS011;48433;53.016;-2.260;2023-04-15T00:56:37;52.38;;;32.58;;
59308;SDS011;48433;53.016;-2.260;2023-04-15T00:59:05;52.67;;;31.83;;
59308;SDS011;48433;53.016;-2.260;2023-04-15T01:01:34;49.22;;;31.83;;
59308;SDS011;48433;53.016;-2.260;2023-04-15T01:04:03;56.95;;;33.60;;
59308;SDS011;48433;53.016;-2.260;2023-04-15T01:06:31;56.00;;;32.55;;
59308;SDS011;48433;53.016;-2.260;2023-04-15T01:08:59;55.05;;;34.53;;
59308;SDS011;48433;53.016;-2.260;2023-04-15T01:11:27;56.40;;;34.70;;
59308;SDS011;48433;53.016;-2.260;2023-04-15T01:13:57;54.88;;;32.90;;
59308;SDS011;48433;53.016;-2.260;2023-04-15T01:16:25;59.50;;;36.10;;
59308;SDS011;48433;53.016;-2.260;2023-04-15T01:18:54;56.47;;;35.42;;
59308;SDS011;48433;53.016;-2.260;2023-04-15T01:21:22;61.05;;;34.83;;
59308;SDS011;48433;53.016;-2.260;2023-04-15T01:23:50;61.25;;;37.47;;
59308;SDS011;48433;53.016;-2.260;2023-04-15T01:26:22;60.20;;;36.28;;
59308;SDS011;48433;53.016;-2.260;2023-04-15T01:28:49;59.38;;;34.95;;
59308;SDS011;48433;53.016;-2.260;2023-04-15T01:31:17;60.58;;;37.08;;
59308;SDS011;48433;53.016;-2.260;2023-04-15T01:33:45;63.83;;;36.20;;
59308;SDS011;48433;53.016;-2.260;2023-04-15T01:36:32;61.33;;;34.85;;
59308;SDS011;48433;53.016;-2.260;2023-04-15T01:39:00;59.78;;;35.70;;
59308;SDS011;48433;53.016;-2.260;2023-04-15T01:41:28;62.50;;;35.65;;
59308;SDS011;48433;53.016;-2.260;2023-04-15T01:43:57;58.38;;;34.97;;
59308;SDS011;48433;53.016;-2.260;2023-04-15T01:46:26;60.85;;;35.25;;
59308;SDS011;48433;53.016;-2.260;2023-04-15T01:48:55;60.33;;;36.88;;
59308;SDS011;48433;53.016;-2.260;2023-04-15T01:51:26;56.22;;;33.33;;
59308;SDS011;48433;53.016;-2.260;2023-04-15T01:53:55;56.92;;;34.25;;
59308;SDS011;48433;53.016;-2.260;2023-04-15T01:56:24;61.78;;;36.80;;
59308;SDS011;48433;53.016;-2.260;2023-04-15T01:58:53;61.90;;;36.33;;
59308;SDS011;48433;53.016;-2.260;2023-04-15T02:01:23;58.60;;;33.92;;
59308;SDS011;48433;53.016;-2.260;2023-04-15T02:03:52;54.72;;;34.70;;
59308;SDS011;48433;53.016;-2.260;2023-04-15T02:06:21;54.95;;;35.10;;
59308;SDS011;48433;53.016;-2.260;2023-04-15T02:08:50;57.05;;;32.78;;
59308;SDS011;48433;53.016;-2.260;2023-04-15T02:11:19;59.00;;;35.47;;
59308;SDS011;48433;53.016;-2.260;2023-04-15T02:13:47;55.47;;;35.28;;
59308;SDS011;48433;53.016;-2.260;2023-04-15T02:16:17;58.25;;;33.10;;
59308;SDS011;48433;53.016;-2.260;2023-04-15T02:18:46;54.38;;;35.03;;
59308;SDS011;48433;53.016;-2.260;2023-04-15T02:21:15;56.53;;;35.35;;
59308;SDS011;48433;53.016;-2.260;2023-04-15T02:23:46;58.63;;;35.40;;
59308;SDS011;48433;53.016;-2.260;2023-04-15T02:26:15;56.53;;;33.38;;
59308;SDS011;48433;53.016;-2.260;2023-04-15T02:28:44;58.03;;;34.78;;
59308;SDS011;48433;53.016;-2.260;2023-04-15T02:31:15;57.95;;;36.35;;
59308;SDS011;48433;53.016;-2.260;2023-04-15T02:33:44;60.90;;;36.42;;
59308;SDS011;48433;53.016;-2.260;2023-04-15T02:36:13;62.58;;;37.45;;
59308;SDS011;48433;53.016;-2.260;2023-04-15T02:38:44;66.03;;;38.10;;
59308;SDS011;48433;53.016;-2.260;2023-04-15T02:41:14;68.95;;;37.05;;
59308;SDS011;48433;53.016;-2.260;2023-04-15T02:43:45;63.33;;;39.60;;
59308;SDS011;48433;53.016;-2.260;2023-04-15T02:46:15;69.25;;;38.05;;
59308;SDS011;48433;53.016;-2.260;2023-04-15T02:48:44;66.72;;;40.22;;
59308;SDS011;48433;53.016;-2.260;2023-04-15T02:51:14;64.72;;;37.28;;
59308;SDS011;48433;53.016;-2.260;2023-04-15T02:53:46;67.97;;;38.65;;
59308;SDS011;48433;53.016;-2.260;2023-04-15T02:56:16;65.88;;;38.40;;
59308;SDS011;48433;53.016;-2.260;2023-04-15T02:58:46;62.47;;;37.72;;
59308;SDS011;48433;53.016;-2.260;2023-04-15T03:01:18;71.85;;;39.65;;
59308;SDS011;48433;53.016;-2.260;2023-04-15T03:03:48;70.15;;;39.97;;
59308;SDS011;48433;53.016;-2.260;2023-04-15T03:06:17;64.85;;;39.55;;
59308;SDS011;48433;53.016;-2.260;2023-04-15T03:08:46;68.30;;;37.63;;
59308;SDS011;48433;53.016;-2.260;2023-04-15T03:11:15;66.38;;;38.60;;
59308;SDS011;48433;53.016;-2.260;2023-04-15T03:13:45;67.50;;;38.17;;
59308;SDS011;48433;53.016;-2.260;2023-04-15T03:16:25;65.97;;;38.72;;
59308;SDS011;48433;53.016;-2.260;2023-04-15T03:18:53;66.60;;;37.85;;
59308;SDS011;48433;53.016;-2.260;2023-04-15T03:21:23;70.18;;;38.75;;
59308;SDS011;48433;53.016;-2.260;2023-04-15T03:23:53;73.35;;;37.70;;
59308;SDS011;48433;53.016;-2.260;2023-04-15T03:26:28;69.80;;;37.47;;
59308;SDS011;48433;53.016;-2.260;2023-04-15T03:29:01;75.53;;;40.35;;
59308;SDS011;48433;53.016;-2.260;2023-04-15T03:31:31;71.47;;;36.15;;
59308;SDS011;48433;53.016;-2.260;2023-04-15T03:33:59;74.10;;;38.50;;
59308;SDS011;48433;53.016;-2.260;2023-04-15T03:36:29;71.82;;;39.60;;
59308;SDS011;48433;53.016;-2.260;2023-04-15T03:39:01;85.65;;;41.40;;
59308;SDS011;48433;53.016;-2.260;2023-04-15T03:41:31;82.22;;;40.45;;
59308;SDS011;48433;53.016;-2.260;2023-04-15T03:44:00;90.97;;;41.92;;
59308;SDS011;48433;53.016;-2.260;2023-04-15T03:46:29;103.43;;;43.70;;
59308;SDS011;48433;53.016;-2.260;2023-04-15T03:48:58;90.32;;;42.83;;
59308;SDS011;48433;53.016;-2.260;2023-04-15T03:51:28;88.88;;;38.92;;
59308;SDS011;48433;53.016;-2.260;2023-04-15T03:53:56;108.15;;;41.90;;
59308;SDS011;48433;53.016;-2.260;2023-04-15T03:56:26;99.38;;;38.95;;
59308;SDS011;48433;53.016;-2.260;2023-04-15T03:58:54;111.72;;;42.25;;
59308;SDS011;48433;53.016;-2.260;2023-04-15T04:01:23;121.05;;;41.30;;
59308;SDS011;48433;53.016;-2.260;2023-04-15T04:03:52;115.80;;;38.70;;
59308;SDS011;48433;53.016;-2.260;2023-04-15T04:06:21;96.53;;;38.95;;
59308;SDS011;48433;53.016;-2.260;2023-04-15T04:08:50;105.60;;;38.75;;
59308;SDS011;48433;53.016;-2.260;2023-04-15T04:11:19;85.82;;;37.75;;
59308;SDS011;48433;53.016;-2.260;2023-04-15T04:13:48;121.63;;;37.10;;
59308;SDS011;48433;53.016;-2.260;2023-04-15T04:16:17;104.32;;;36.40;;
59308;SDS011;48433;53.016;-2.260;2023-04-15T04:18:46;142.43;;;40.97;;
59308;SDS011;48433;53.016;-2.260;2023-04-15T04:21:15;107.70;;;34.70;;
59308;SDS011;48433;53.016;-2.260;2023-04-15T04:23:44;106.03;;;35.50;;
59308;SDS011;48433;53.016;-2.260;2023-04-15T04:26:13;106.57;;;36.22;;
59308;SDS011;48433;53.016;-2.260;2023-04-15T04:28:42;90.75;;;34.10;;
59308;SDS011;48433;53.016;-2.260;2023-04-15T04:31:11;90.18;;;32.70;;
59308;SDS011;48433;53.016;-2.260;2023-04-15T04:33:39;101.90;;;33.30;;
59308;SDS011;48433;53.016;-2.260;2023-04-15T04:36:08;85.35;;;32.60;;
59308;SDS011;48433;53.016;-2.260;2023-04-15T04:38:37;111.60;;;32.58;;
59308;SDS011;48433;53.016;-2.260;2023-04-15T04:41:06;76.65;;;31.52;;
59308;SDS011;48433;53.016;-2.260;2023-04-15T04:43:35;84.55;;;30.70;;
59308;SDS011;48433;53.016;-2.260;2023-04-15T04:46:04;99.70;;;32.33;;
59308;SDS011;48433;53.016;-2.260;2023-04-15T04:48:33;88.95;;;28.73;;
59308;SDS011;48433;53.016;-2.260;2023-04-15T04:51:01;80.75;;;30.33;;
59308;SDS011;48433;53.016;-2.260;2023-04-15T04:53:31;123.07;;;32.53;;
59308;SDS011;48433;53.016;-2.260;2023-04-15T04:55:59;83.93;;;30.23;;
59308;SDS011;48433;53.016;-2.260;2023-04-15T04:58:28;94.30;;;29.80;;
59308;SDS011;48433;53.016;-2.260;2023-04-15T05:00:57;74.97;;;28.42;;
59308;SDS011;48433;53.016;-2.260;2023-04-15T05:03:26;122.95;;;30.13;;
59308;SDS011;48433;53.016;-2.260;2023-04-15T05:05:56;85.15;;;27.50;;
59308;SDS011;48433;53.016;-2.260;2023-04-15T05:08:25;92.85;;;28.98;;
59308;SDS011;48433;53.016;-2.260;2023-04-15T05:10:54;106.28;;;27.67;;
59308;SDS011;48433;53.016;-2.260;2023-04-15T05:13:23;135.40;;;30.35;;
59308;SDS011;48433;53.016;-2.260;2023-04-15T05:15:52;146.88;;;30.50;;
59308;SDS011;48433;53.016;-2.260;2023-04-15T05:18:21;141.32;;;28.63;;
59308;SDS011;48433;53.016;-2.260;2023-04-15T05:20:49;156.85;;;28.95;;
59308;SDS011;48433;53.016;-2.260;2023-04-15T05:23:18;103.70;;;26.00;;
59308;SDS011;48433;53.016;-2.260;2023-04-15T05:25:47;154.55;;;28.38;;
59308;SDS011;48433;53.016;-2.260;2023-04-15T05:28:16;79.22;;;26.58;;
59308;SDS011;48433;53.016;-2.260;2023-04-15T05:30:45;80.93;;;25.02;;
59308;SDS011;48433;53.016;-2.260;2023-04-15T05:33:14;123.22;;;27.55;;
59308;SDS011;48433;53.016;-2.260;2023-04-15T05:35:43;127.63;;;29.48;;
59308;SDS011;48433;53.016;-2.260;2023-04-15T05:38:11;83.85;;;26.92;;
59308;SDS011;48433;53.016;-2.260;2023-04-15T05:40:40;92.32;;;27.13;;
59308;SDS011;48433;53.016;-2.260;2023-04-15T05:43:09;101.13;;;23.92;;
59308;SDS011;48433;53.016;-2.260;2023-04-15T05:45:38;100.65;;;25.13;;
59308;SDS011;48433;53.016;-2.260;2023-04-15T05:48:07;80.65;;;23.10;;
59308;SDS011;48433;53.016;-2.260;2023-04-15T05:50:36;65.97;;;23.25;;
59308;SDS011;48433;53.016;-2.260;2023-04-15T05:53:08;52.67;;;21.77;;
59308;SDS011;48433;53.016;-2.260;2023-04-15T05:55:36;57.60;;;22.38;;
59308;SDS011;48433;53.016;-2.260;2023-04-15T05:58:05;69.88;;;22.25;;
59308;SDS011;48433;53.016;-2.260;2023-04-15T06:00:34;49.47;;;21.15;;
59308;SDS011;48433;53.016;-2.260;2023-04-15T06:03:03;56.45;;;20.95;;
59308;SDS011;48433;53.016;-2.260;2023-04-15T06:05:33;45.05;;;21.83;;
59308;SDS011;48433;53.016;-2.260;2023-04-15T06:08:02;56.03;;;20.98;;
59308;SDS011;48433;53.016;-2.260;2023-04-15T06:10:31;47.33;;;21.20;;
59308;SDS011;48433;53.016;-2.260;2023-04-15T06:13:04;38.42;;;21.00;;
59308;SDS011;48433;53.016;-2.260;2023-04-15T06:15:33;38.08;;;20.77;;
59308;SDS011;48433;53.016;-2.260;2023-04-15T06:18:02;49.10;;;20.25;;
59308;SDS011;48433;53.016;-2.260;2023-04-15T06:20:30;59.50;;;20.77;;
59308;SDS011;48433;53.016;-2.260;2023-04-15T06:22:59;39.85;;;20.77;;
59308;SDS011;48433;53.016;-2.260;2023-04-15T06:25:28;41.78;;;22.00;;
59308;SDS011;48433;53.016;-2.260;2023-04-15T06:27:58;42.45;;;19.50;;
59308;SDS011;48433;53.016;-2.260;2023-04-15T06:30:27;40.85;;;21.70;;
59308;SDS011;48433;53.016;-2.260;2023-04-15T06:32:55;44.80;;;20.80;;
59308;SDS011;48433;53.016;-2.260;2023-04-15T06:35:25;39.92;;;22.42;;
59308;SDS011;48433;53.016;-2.260;2023-04-15T06:37:54;38.05;;;21.45;;
59308;SDS011;48433;53.016;-2.260;2023-04-15T06:40:24;42.40;;;22.88;;
59308;SDS011;48433;53.016;-2.260;2023-04-15T06:42:53;42.50;;;24.38;;
59308;SDS011;48433;53.016;-2.260;2023-04-15T06:45:22;43.80;;;24.10;;
59308;SDS011;48433;53.016;-2.260;2023-04-15T06:47:51;43.42;;;24.20;;
59308;SDS011;48433;53.016;-2.260;2023-04-15T06:50:20;42.58;;;23.67;;
59308;SDS011;48433;53.016;-2.260;2023-04-15T06:52:49;40.35;;;24.40;;
59308;SDS011;48433;53.016;-2.260;2023-04-15T06:55:18;46.08;;;23.67;;
59308;SDS011;48433;53.016;-2.260;2023-04-15T06:57:47;40.80;;;22.15;;
59308;SDS011;48433;53.016;-2.260;2023-04-15T07:00:16;42.97;;;22.33;;
59308;SDS011;48433;53.016;-2.260;2023-04-15T07:02:45;38.28;;;20.58;;
59308;SDS011;48433;53.016;-2.260;2023-04-15T07:05:15;37.50;;;20.17;;
59308;SDS011;48433;53.016;-2.260;2023-04-15T07:07:44;35.00;;;18.52;;
59308;SDS011;48433;53.016;-2.260;2023-04-15T07:10:13;42.33;;;22.70;;
59308;SDS011;48433;53.016;-2.260;2023-04-15T07:12:43;34.03;;;20.30;;
59308;SDS011;48433;53.016;-2.260;2023-04-15T07:15:12;40.80;;;19.58;;
59308;SDS011;48433;53.016;-2.260;2023-04-15T07:17:41;32.20;;;17.27;;
59308;SDS011;48433;53.016;-2.260;2023-04-15T07:20:13;30.33;;;17.92;;
59308;SDS011;48433;53.016;-2.260;2023-04-15T07:22:42;28.55;;;17.52;;
59308;SDS011;48433;53.016;-2.260;2023-04-15T07:25:11;27.20;;;17.67;;
59308;SDS011;48433;53.016;-2.260;2023-04-15T07:27:40;23.33;;;14.15;;
59308;SDS011;48433;53.016;-2.260;2023-04-15T07:30:09;23.70;;;15.05;;
59308;SDS011;48433;53.016;-2.260;2023-04-15T07:32:40;24.63;;;13.20;;
59308;SDS011;48433;53.016;-2.260;2023-04-15T07:35:09;21.38;;;14.30;;
59308;SDS011;48433;53.016;-2.260;2023-04-15T07:37:38;18.10;;;13.27;;
59308;SDS011;48433;53.016;-2.260;2023-04-15T07:40:07;18.52;;;12.25;;
59308;SDS011;48433;53.016;-2.260;2023-04-15T07:42:37;19.08;;;12.25;;
59308;SDS011;48433;53.016;-2.260;2023-04-15T07:45:08;16.00;;;10.20;;
59308;SDS011;48433;53.016;-2.260;2023-04-15T07:47:38;15.35;;;9.70;;
59308;SDS011;48433;53.016;-2.260;2023-04-15T07:50:09;12.57;;;8.23;;
59308;SDS011;48433;53.016;-2.260;2023-04-15T07:52:42;11.27;;;7.78;;
59308;SDS011;48433;53.016;-2.260;2023-04-15T07:55:11;13.13;;;8.48;;
59308;SDS011;48433;53.016;-2.260;2023-04-15T07:57:40;15.00;;;9.07;;
59308;SDS011;48433;53.016;-2.260;2023-04-15T08:00:09;13.57;;;8.48;;
59308;SDS011;48433;53.016;-2.260;2023-04-15T08:02:41;12.23;;;8.23;;
59308;SDS011;48433;53.016;-2.260;2023-04-15T08:05:10;15.88;;;8.75;;
59308;SDS011;48433;53.016;-2.260;2023-04-15T08:07:41;12.13;;;8.52;;
59308;SDS011;48433;53.016;-2.260;2023-04-15T08:10:10;12.40;;;8.18;;
59308;SDS011;48433;53.016;-2.260;2023-04-15T08:12:39;16.15;;;10.15;;
59308;SDS011;48433;53.016;-2.260;2023-04-15T08:15:08;14.25;;;10.32;;
59308;SDS011;48433;53.016;-2.260;2023-04-15T08:17:37;12.43;;;8.50;;
59308;SDS011;48433;53.016;-2.260;2023-04-15T08:20:07;13.35;;;8.70;;
59308;SDS011;48433;53.016;-2.260;2023-04-15T08:22:36;13.10;;;9.05;;
59308;SDS011;48433;53.016;-2.260;2023-04-15T08:25:05;11.57;;;8.20;;
59308;SDS011;48433;53.016;-2.260;2023-04-15T08:27:34;11.40;;;6.80;;
59308;SDS011;48433;53.016;-2.260;2023-04-15T08:30:04;13.40;;;7.18;;
59308;SDS011;48433;53.016;-2.260;2023-04-15T08:32:33;12.73;;;7.40;;
59308;SDS011;48433;53.016;-2.260;2023-04-15T08:35:02;10.82;;;7.22;;
59308;SDS011;48433;53.016;-2.260;2023-04-15T08:37:30;9.43;;;6.50;;
59308;SDS011;48433;53.016;-2.260;2023-04-15T08:39:59;9.35;;;6.20;;
59308;SDS011;48433;53.016;-2.260;2023-04-15T08:42:33;9.82;;;6.95;;
59308;SDS011;48433;53.016;-2.260;2023-04-15T08:45:06;10.55;;;7.00;;
59308;SDS011;48433;53.016;-2.260;2023-04-15T08:47:37;10.90;;;6.50;;
59308;SDS011;48433;53.016;-2.260;2023-04-15T08:50:08;9.65;;;6.75;;
59308;SDS011;48433;53.016;-2.260;2023-04-15T08:52:37;12.38;;;7.28;;
59308;SDS011;48433;53.016;-2.260;2023-04-15T08:55:07;13.35;;;7.22;;
59308;SDS011;48433;53.016;-2.260;2023-04-15T08:57:38;10.43;;;7.30;;
59308;SDS011;48433;53.016;-2.260;2023-04-15T09:00:07;12.60;;;8.90;;
59308;SDS011;48433;53.016;-2.260;2023-04-15T09:02:37;10.93;;;6.90;;
59308;SDS011;48433;53.016;-2.260;2023-04-15T09:05:07;7.78;;;5.15;;
59308;SDS011;48433;53.016;-2.260;2023-04-15T09:07:36;9.00;;;5.03;;
59308;SDS011;48433;53.016;-2.260;2023-04-15T09:10:05;7.63;;;4.65;;
59308;SDS011;48433;53.016;-2.260;2023-04-15T09:12:35;7.32;;;4.18;;
59308;SDS011;48433;53.016;-2.260;2023-04-15T09:15:05;8.05;;;4.53;;
59308;SDS011;48433;53.016;-2.260;2023-04-15T09:17:36;7.50;;;4.85;;
59308;SDS011;48433;53.016;-2.260;2023-04-15T09:20:11;7.03;;;4.40;;
59308;SDS011;48433;53.016;-2.260;2023-04-15T09:22:42;7.55;;;4.60;;
59308;SDS011;48433;53.016;-2.260;2023-04-15T09:27:51;6.72;;;4.20;;
59308;SDS011;48433;53.016;-2.260;2023-04-15T09:30:24;6.65;;;3.75;;
59308;SDS011;48433;53.016;-2.260;2023-04-15T09:32:59;6.37;;;4.17;;
59308;SDS011;48433;53.016;-2.260;2023-04-15T09:35:38;6.40;;;3.72;;
59308;SDS011;48433;53.016;-2.260;2023-04-15T09:38:07;6.85;;;3.80;;
59308;SDS011;48433;53.016;-2.260;2023-04-15T09:40:40;6.70;;;3.67;;
59308;SDS011;48433;53.016;-2.260;2023-04-15T09:43:09;6.45;;;3.83;;
59308;SDS011;48433;53.016;-2.260;2023-04-15T09:45:51;7.47;;;4.75;;
59308;SDS011;48433;53.016;-2.260;2023-04-15T09:48:21;9.55;;;4.70;;
59308;SDS011;48433;53.016;-2.260;2023-04-15T09:50:59;8.60;;;4.57;;
59308;SDS011;48433;53.016;-2.260;2023-04-15T09:53:29;9.25;;;4.57;;
59308;SDS011;48433;53.016;-2.260;2023-04-15T09:56:01;7.43;;;4.40;;
59308;SDS011;48433;53.016;-2.260;2023-04-15T09:58:33;6.50;;;4.00;;
59308;SDS011;48433;53.016;-2.260;2023-04-15T10:01:03;9.55;;;6.10;;
59308;SDS011;48433;53.016;-2.260;2023-04-15T10:03:34;8.43;;;4.20;;
59308;SDS011;48433;53.016;-2.260;2023-04-15T10:06:06;9.32;;;4.88;;
59308;SDS011;48433;53.016;-2.260;2023-04-15T10:08:36;6.63;;;3.92;;
59308;SDS011;48433;53.016;-2.260;2023-04-15T10:11:06;8.85;;;4.75;;
59308;SDS011;48433;53.016;-2.260;2023-04-15T10:13:35;7.03;;;3.92;;
59308;SDS011;48433;53.016;-2.260;2023-04-15T10:16:07;7.35;;;4.40;;
59308;SDS011;48433;53.016;-2.260;2023-04-15T10:18:43;9.15;;;4.20;;
59308;SDS011;48433;53.016;-2.260;2023-04-15T10:21:14;7.85;;;4.70;;
59308;SDS011;48433;53.016;-2.260;2023-04-15T10:23:46;7.07;;;4.35;;
59308;SDS011;48433;53.016;-2.260;2023-04-15T10:26:15;6.88;;;3.50;;
59308;SDS011;48433;53.016;-2.260;2023-04-15T10:28:47;7.53;;;3.83;;
59308;SDS011;48433;53.016;-2.260;2023-04-15T10:31:16;7.43;;;3.75;;
59308;SDS011;48433;53.016;-2.260;2023-04-15T10:33:47;6.75;;;3.50;;
59308;SDS011;48433;53.016;-2.260;2023-04-15T10:36:17;7.18;;;4.15;;
59308;SDS011;48433;53.016;-2.260;2023-04-15T10:38:46;7.22;;;3.80;;
59308;SDS011;48433;53.016;-2.260;2023-04-15T10:43:52;6.85;;;3.70;;
59308;SDS011;48433;53.016;-2.260;2023-04-15T10:48:53;8.67;;;4.33;;
59308;SDS011;48433;53.016;-2.260;2023-04-15T10:51:29;7.35;;;3.67;;
59308;SDS011;48433;53.016;-2.260;2023-04-15T10:53:58;6.15;;;3.63;;
59308;SDS011;48433;53.016;-2.260;2023-04-15T10:56:28;6.50;;;4.13;;
59308;SDS011;48433;53.016;-2.260;2023-04-15T10:58:58;6.30;;;4.15;;
59308;SDS011;48433;53.016;-2.260;2023-04-15T11:07:41;9.52;;;6.85;;
59308;SDS011;48433;53.016;-2.260;2023-04-15T11:12:56;8.65;;;6.00;;
59308;SDS011;48433;53.016;-2.260;2023-04-15T11:20:53;9.73;;;6.45;;
59308;SDS011;48433;53.016;-2.260;2023-04-15T11:23:29;9.63;;;6.35;;
59308;SDS011;48433;53.016;-2.260;2023-04-15T11:26:06;10.07;;;6.82;;
59308;SDS011;48433;53.016;-2.260;2023-04-15T11:28:40;9.15;;;5.70;;
59308;SDS011;48433;53.016;-2.260;2023-04-15T11:31:12;10.77;;;5.97;;
59308;SDS011;48433;53.016;-2.260;2023-04-15T11:33:55;9.05;;;6.30;;
59308;SDS011;48433;53.016;-2.260;2023-04-15T11:36:30;8.30;;;5.32;;
59308;SDS011;48433;53.016;-2.260;2023-04-15T11:39:03;9.25;;;5.88;;
59308;SDS011;48433;53.016;-2.260;2023-04-15T11:41:34;8.77;;;5.20;;
59308;SDS011;48433;53.016;-2.260;2023-04-15T11:44:14;8.55;;;5.13;;
59308;SDS011;48433;53.016;-2.260;2023-04-15T11:46:46;8.38;;;5.50;;
59308;SDS011;48433;53.016;-2.260;2023-04-15T11:49:25;7.93;;;5.50;;
59308;SDS011;48433;53.016;-2.260;2023-04-15T11:51:54;9.57;;;5.53;;
59308;SDS011;48433;53.016;-2.260;2023-04-15T11:54:21;7.05;;;4.75;;
59308;SDS011;48433;53.016;-2.260;2023-04-15T11:56:49;7.65;;;4.57;;
59308;SDS011;48433;53.016;-2.260;2023-04-15T11:59:18;7.13;;;4.38;;
59308;SDS011;48433;53.016;-2.260;2023-04-15T12:01:46;7.72;;;4.60;;
59308;SDS011;48433;53.016;-2.260;2023-04-15T12:04:14;8.30;;;4.22;;
59308;SDS011;48433;53.016;-2.260;2023-04-15T12:06:50;6.57;;;4.03;;
59308;SDS011;48433;53.016;-2.260;2023-04-15T12:09:20;6.30;;;3.58;;
59308;SDS011;48433;53.016;-2.260;2023-04-15T12:11:48;6.75;;;4.15;;
59308;SDS011;48433;53.016;-2.260;2023-04-15T12:14:35;6.38;;;3.90;;
59308;SDS011;48433;53.016;-2.260;2023-04-15T12:17:05;7.80;;;3.70;;
59308;SDS011;48433;53.016;-2.260;2023-04-15T12:19:39;7.20;;;3.88;;
59308;SDS011;48433;53.016;-2.260;2023-04-15T12:22:08;6.28;;;3.67;;
59308;SDS011;48433;53.016;-2.260;2023-04-15T12:24:37;6.78;;;3.15;;
59308;SDS011;48433;53.016;-2.260;2023-04-15T12:27:06;6.28;;;3.58;;
59308;SDS011;48433;53.016;-2.260;2023-04-15T12:29:35;6.43;;;3.55;;
59308;SDS011;48433;53.016;-2.260;2023-04-15T12:32:11;6.95;;;3.65;;
59308;SDS011;48433;53.016;-2.260;2023-04-15T12:34:51;6.68;;;3.42;;
59308;SDS011;48433;53.016;-2.260;2023-04-15T12:37:20;6.93;;;3.00;;
59308;SDS011;48433;53.016;-2.260;2023-04-15T12:39:48;6.25;;;2.67;;
59308;SDS011;48433;53.016;-2.260;2023-04-15T12:42:17;5.97;;;3.30;;
59308;SDS011;48433;53.016;-2.260;2023-04-15T12:44:45;6.15;;;3.33;;
59308;SDS011;48433;53.016;-2.260;2023-04-15T12:47:12;9.38;;;3.35;;
59308;SDS011;48433;53.016;-2.260;2023-04-15T12:49:40;6.18;;;3.33;;
59308;SDS011;48433;53.016;-2.260;2023-04-15T12:52:08;5.80;;;3.10;;
59308;SDS011;48433;53.016;-2.260;2023-04-15T12:54:35;5.85;;;3.25;;
59308;SDS011;48433;53.016;-2.260;2023-04-15T12:57:03;5.93;;;3.17;;
59308;SDS011;48433;53.016;-2.260;2023-04-15T12:59:33;7.88;;;3.15;;
59308;SDS011;48433;53.016;-2.260;2023-04-15T13:02:02;6.85;;;2.80;;
59308;SDS011;48433;53.016;-2.260;2023-04-15T13:04:30;7.68;;;3.40;;
59308;SDS011;48433;53.016;-2.260;2023-04-15T13:06:58;7.88;;;3.42;;
59308;SDS011;48433;53.016;-2.260;2023-04-15T13:09:25;6.88;;;3.13;;
59308;SDS011;48433;53.016;-2.260;2023-04-15T13:11:53;7.72;;;3.80;;
59308;SDS011;48433;53.016;-2.260;2023-04-15T13:14:22;6.07;;;3.00;;
59308;SDS011;48433;53.016;-2.260;2023-04-15T13:16:49;6.82;;;3.33;;
59308;SDS011;48433;53.016;-2.260;2023-04-15T13:19:17;14.50;;;4.22;;
59308;SDS011;48433;53.016;-2.260;2023-04-15T13:21:44;5.95;;;3.10;;
59308;SDS011;48433;53.016;-2.260;2023-04-15T13:24:12;7.75;;;3.30;;
59308;SDS011;48433;53.016;-2.260;2023-04-15T13:26:40;7.85;;;3.45;;
59308;SDS011;48433;53.016;-2.260;2023-04-15T13:29:07;6.20;;;2.88;;
59308;SDS011;48433;53.016;-2.260;2023-04-15T13:31:35;6.43;;;2.95;;
59308;SDS011;48433;53.016;-2.260;2023-04-15T13:34:03;6.22;;;3.28;;
59308;SDS011;48433;53.016;-2.260;2023-04-15T13:36:31;7.30;;;3.20;;
59308;SDS011;48433;53.016;-2.260;2023-04-15T13:38:59;9.07;;;3.88;;
59308;SDS011;48433;53.016;-2.260;2023-04-15T13:41:26;6.30;;;3.10;;
59308;SDS011;48433;53.016;-2.260;2023-04-15T13:43:54;7.00;;;3.15;;
59308;SDS011;48433;53.016;-2.260;2023-04-15T13:46:22;5.50;;;2.80;;
59308;SDS011;48433;53.016;-2.260;2023-04-15T13:48:51;6.85;;;3.17;;
59308;SDS011;48433;53.016;-2.260;2023-04-15T13:51:19;7.95;;;3.03;;
59308;SDS011;48433;53.016;-2.260;2023-04-15T13:53:47;10.10;;;3.63;;
59308;SDS011;48433;53.016;-2.260;2023-04-15T13:56:14;5.07;;;2.47;;
59308;SDS011;48433;53.016;-2.260;2023-04-15T13:58:42;5.97;;;2.70;;
59308;SDS011;48433;53.016;-2.260;2023-04-15T14:01:09;8.40;;;2.80;;
59308;SDS011;48433;53.016;-2.260;2023-04-15T14:03:37;5.40;;;2.33;;
59308;SDS011;48433;53.016;-2.260;2023-04-15T14:06:05;5.70;;;3.28;;
59308;SDS011;48433;53.016;-2.260;2023-04-15T14:08:33;9.10;;;3.00;;
59308;SDS011;48433;53.016;-2.260;2023-04-15T14:11:00;5.70;;;2.80;;
59308;SDS011;48433;53.016;-2.260;2023-04-15T14:13:28;6.38;;;3.20;;
59308;SDS011;48433;53.016;-2.260;2023-04-15T14:15:55;11.13;;;3.33;;
59308;SDS011;48433;53.016;-2.260;2023-04-15T14:18:23;19.60;;;4.15;;
59308;SDS011;48433;53.016;-2.260;2023-04-15T14:20:51;6.05;;;2.83;;
59308;SDS011;48433;53.016;-2.260;2023-04-15T14:23:18;7.70;;;3.05;;
59308;SDS011;48433;53.016;-2.260;2023-04-15T14:25:46;6.20;;;2.53;;
59308;SDS011;48433;53.016;-2.260;2023-04-15T14:28:14;5.32;;;2.55;;
59308;SDS011;48433;53.016;-2.260;2023-04-15T14:30:42;6.53;;;3.00;;
59308;SDS011;48433;53.016;-2.260;2023-04-15T14:33:10;6.35;;;2.67;;
59308;SDS011;48433;53.016;-2.260;2023-04-15T14:35:37;6.90;;;3.00;;
59308;SDS011;48433;53.016;-2.260;2023-04-15T14:38:05;10.63;;;5.88;;
59308;SDS011;48433;53.016;-2.260;2023-04-15T14:40:36;6.20;;;3.13;;
59308;SDS011;48433;53.016;-2.260;2023-04-15T14:43:04;7.45;;;3.35;;
59308;SDS011;48433;53.016;-2.260;2023-04-15T14:45:32;5.05;;;2.60;;
59308;SDS011;48433;53.016;-2.260;2023-04-15T14:47:59;6.28;;;2.67;;
59308;SDS011;48433;53.016;-2.260;2023-04-15T14:50:27;6.68;;;2.45;;
59308;SDS011;48433;53.016;-2.260;2023-04-15T14:52:55;8.63;;;2.92;;
59308;SDS011;48433;53.016;-2.260;2023-04-15T14:55:22;5.80;;;2.70;;